Hlavní strana
METAR-TAF:

METAR-TAF

Letiště :

Cheraw, Jižní Karolína, Spojené státy americké

zeměpisná šířka: 34-42-46N, zeměpisná délka: 079-57-25W, výška: 73 m

Aktuální stav počasí

Zpráva byla vytvořena před 10 minutami, v 12:55 UTC
Bezvětří
Teplota 3°C
Vlhkost vzduchu 93%
Tlak 1016 hPa
Viditelnost: 16.1 km
Jasno

METAR: KCQW 281255Z AUTO 00000KT 10SM CLR 03/02 A3000 RMK AO2

Čas: 08:05 (13:05 UTC)


TAF: chybějící

Stav a předpovědi počasí z více než 4 000 letišť (zprávy METAR a TAF).

Červené a žluté tečky na mapě představují dostupné meteorologické stanice.

Když kurzor umístíte na tečku, zobrazí se název stanice.

Pak kliknutím zobrazíte stav a předpověď počasí.

Chcete-li změnit mapu, kliknutím na zelené tlačítko se znaménkem +mapu přiblížíte, kliknutím na zelené tlačítko se znaménkem – mapu oddálíte a kliknutím na zelené šipky přejdete na sousední mapy.


METAR-TAF: